Parker Dam, California
Current Conditions -  °F | °C
As of 6:55 AM on Saturday 01 Nov 2014 (Local Time) from KHII Reporting Station
Clear Clear  
Wind Chill: 68°   Ceiling: Unl
Heat Index: 68°   Visibility: 10mi
Dew Point: 48°   Wind: 14mph
Humidity: 49%   Direction: 140°SE
Pressure: 29.78"   Gusts: NA
Location:  34.29°N, 114.14°W
Report Text: KHII 011355Z AUTO 14012KT 10SM CLR 20/09 A2978 RMK AO2
Loading
Personal Weather Stations






























Interactive Weather Map New forecast layout! Learn more

10-Day Weather Forecast

Advertisements
Track Severe Weather on mobile